M I D A S
Marine Information and Data Acquisition System
Tripno 1258 of the Zeeleeuw from 2007-02-16 07:38:04 to 2007-02-16 14:00:57
Back to CruiseResearch ActivitiesStationsMapUnderway DataData graphs

EquipmentUnitsComment
TimeDGPSUTC
LatitudeDGPSDM.mWGS84
LongitudeDGPSDM.mWGS84
TemperatureSBE03/SBE38deg celciusITS90
ConductivitySBE21S/mITS90
SalinitySBE21 Practical Salinity Units
ChlorophylAChelsea fluorimeterg/lCalibrated in Aceton
Missing or incorrect values are displayed as -999
Sea surface data collected by the RV Zeeleeuw from 2007-02-16 07:38:14 to 2007-02-16 14:07:54
Time Latitude Longitude Temperature Conductivity Salinity ChlorophylA
2007-02-16 07:39:20 51°13.598 2°56.094 15.6775 0.068074 0.369693 -2.871232
2007-02-16 07:40:20 51°13.598 2°56.093 15.6714 0.067971 0.369116 -2.871232
2007-02-16 07:41:20 51°13.598 2°56.093 15.6044 0.068074 0.3697 -2.871232
2007-02-16 07:42:23 51°13.61 2°56.042 15.6627 0.067971 0.369102 -2.871232
2007-02-16 07:43:23 51°13.63 2°55.969 11.3485 0.084026 0.45865 -2.871232
2007-02-16 07:44:23 51°13.656 2°55.891 8.2822 2.84875 24.825246 -2.871232
2007-02-16 07:45:22 51°13.676 2°55.811 8.0393 2.837693 25.34365 -2.871232
2007-02-16 07:46:20 51°13.683 2°55.748 7.9356 2.811533 25.23627 -2.871232
2007-02-16 07:47:20 51°13.691 2°55.738 7.8544 2.760868 24.827089 -2.871232
2007-02-16 07:48:20 51°13.748 2°55.716 7.7685 2.727681 24.551758 -2.871232
2007-02-16 07:49:20 51°13.839 2°55.632 7.7069 2.335289 20.805912 -2.871232
2007-02-16 07:50:19 51°13.951 2°55.548 7.7999 2.577796 23.1558 -2.871232
2007-02-16 07:51:21 51°14.074 2°55.461 7.7724 2.765833 25.000227 -2.871232
2007-02-16 07:52:23 51°14.193 2°55.356 7.7033 2.636401 23.761491 -2.871232
2007-02-16 07:53:23 51°14.289 2°55.212 7.657 2.618209 23.622219 -2.871232
2007-02-16 07:54:21 51°14.38 2°55.033 7.6224 2.603429 23.504179 -2.871232
2007-02-16 07:55:19 51°14.463 2°54.729 7.7716 2.925401 26.706487 -2.871232
2007-02-16 07:56:19 51°14.424 2°54.376 7.8274 3.30867 30.462756 -2.871232
2007-02-16 07:57:20 51°14.308 2°54.055 7.8439 3.360536 30.987354 -2.871232
2007-02-16 07:58:20 51°14.191 2°53.734 7.8419 3.408369 31.465669 -2.871232
2007-02-16 07:59:20 51°14.077 2°53.407 7.8223 3.409819 31.486561 -2.871232
2007-02-16 08:00:20 51°13.962 2°53.076 7.8116 3.401847 31.422143 -2.871232
2007-02-16 08:01:20 51°13.848 2°52.744 7.8139 3.422555 31.644849 -2.871232
2007-02-16 08:02:20 51°13.732 2°52.412 7.8058 3.43115 31.733036 -2.871232
2007-02-16 08:03:20 51°13.619 2°52.08 7.8032 3.423798 31.667163 -2.871232
2007-02-16 08:04:20 51°13.507 2°51.747 7.8034 3.419449 31.626879 -2.871232
2007-02-16 08:05:20 51°13.395 2°51.415 7.8044 3.431564 31.746877 -2.871232
2007-02-16 08:06:20 51°13.283 2°51.083 7.8087 3.430736 31.737501 -2.871232
2007-02-16 08:07:20 51°13.172 2°50.751 7.8168 3.432496 31.746852 -2.871232
2007-02-16 08:08:20 51°13.061 2°50.418 7.8249 3.440055 31.820953 -2.871232
2007-02-16 08:09:20 51°12.949 2°50.086 7.8214 3.443472 31.851663 -2.871232
2007-02-16 08:10:20 51°12.839 2°49.752 7.8168 3.446682 31.89075 -2.871232
2007-02-16 08:11:20 51°12.728 2°49.419 7.8106 3.451549 31.946878 -2.871232
2007-02-16 08:12:20 51°12.617 2°49.086 7.807 3.459937 32.040991 -2.871232
2007-02-16 08:13:20 51°12.507 2°48.754 7.804 3.467082 32.117988 -2.871232
2007-02-16 08:14:20 51°12.396 2°48.424 7.8018 3.46149 32.062246 -2.871232
2007-02-16 08:15:20 51°12.286 2°48.095 7.8157 3.47195 32.168935 -2.871232
2007-02-16 08:16:20 51°12.18 2°47.766 7.8239 3.478784 32.222432 -2.871232
2007-02-16 08:17:20 51°12.082 2°47.429 7.8211 3.480648 32.242491 -2.871232
2007-02-16 08:18:20 51°11.985 2°47.094 7.8289 3.478059 32.221172 -2.871232
2007-02-16 08:19:20 51°11.888 2°46.76 7.8368 3.477956 32.216566 -2.871232
2007-02-16 08:20:20 51°11.791 2°46.427 7.83 3.478888 32.217303 -2.871232
2007-02-16 08:21:20 51°11.695 2°46.093 7.8274 3.477645 32.210717 -2.871232
2007-02-16 08:22:20 51°11.599 2°45.761 7.8317 3.477024 32.205211 -2.871232
2007-02-16 08:23:20 51°11.504 2°45.428 7.8284 3.476195 32.188734 -2.871232
2007-02-16 08:24:20 51°11.409 2°45.095 7.8302 3.476092 32.188553 -2.871232
2007-02-16 08:25:20 51°11.315 2°44.762 7.8358 3.475781 32.184475 -2.871232
2007-02-16 08:26:20 51°11.221 2°44.43 7.8449 3.475263 32.174734 -2.871232
2007-02-16 08:27:20 51°11.127 2°44.099 7.8562 3.474642 32.159517 -2.871232
2007-02-16 08:28:20 51°11.033 2°43.769 7.865 3.474848 32.146645 -2.871232
2007-02-16 08:29:20 51°10.939 2°43.441 7.8647 3.475884 32.157282 -2.871232
2007-02-16 08:30:20 51°10.845 2°43.112 7.8664 3.47692 32.168803 -2.871232
2007-02-16 08:31:20 51°10.751 2°42.785 7.8625 3.477541 32.176952 -2.871232
2007-02-16 08:32:20 51°10.657 2°42.458 7.8571 3.478162 32.186868 -2.871232
2007-02-16 08:33:20 51°10.563 2°42.131 7.8663 3.47868 32.185123 -2.871232
2007-02-16 08:34:20 51°10.47 2°41.807 7.8664 3.479716 32.194879 -2.871232
2007-02-16 08:35:20 51°10.378 2°41.481 7.8594 3.480234 32.203732 -2.871232
2007-02-16 08:36:20 51°10.284 2°41.158 7.8404 3.478162 32.193052 -2.871232
2007-02-16 08:37:20 51°10.193 2°40.834 7.8329 3.472156 32.145448 -2.871232
2007-02-16 08:38:20 51°10.107 2°40.506 7.8036 3.470189 32.129635 -2.871232
2007-02-16 08:39:20 51°10.021 2°40.181 7.7364 3.396567 31.440539 -2.871232
2007-02-16 08:40:20 51°9.934 2°39.855 7.7429 3.379794 31.287322 -2.871232
2007-02-16 08:41:20 51°9.847 2°39.53 7.7362 3.380001 31.286864 -2.871232
2007-02-16 08:42:20 51°9.76 2°39.207 7.7335 3.375549 31.253211 -2.871232
2007-02-16 08:43:20 51°9.674 2°38.883 7.7436 3.38611 31.357349 -2.871232
2007-02-16 08:44:20 51°9.587 2°38.562 7.7309 3.395946 31.455798 -2.871232
2007-02-16 08:45:20 51°9.5 2°38.239 7.7397 3.402987 31.535096 -2.871232
2007-02-16 08:46:20 51°9.414 2°37.916 7.7453 3.414998 31.649014 -2.871232
2007-02-16 08:47:20 51°9.337 2°37.587 7.751 3.421728 31.714737 -2.871232
2007-02-16 08:48:20 51°9.262 2°37.258 7.7716 3.43726 31.863126 -2.871232
2007-02-16 08:49:20 51°9.188 2°36.928 7.7855 3.446683 31.946022 -2.871232
2007-02-16 08:50:20 51°9.112 2°36.599 7.7988 3.455795 32.030975 -2.871232
2007-02-16 08:51:20 51°9.039 2°36.271 7.8132 3.468532 32.145267 -2.871232
2007-02-16 08:52:20 51°8.973 2°35.979 7.818 3.477645 32.225764 -2.871232
2007-02-16 08:53:20 51°9.021 2°35.858 7.8254 3.482098 32.262721 -2.871232
2007-02-16 08:54:20 51°9.096 2°35.892 7.8322 3.480545 32.236998 -2.871232
2007-02-16 08:55:20 51°9.159 2°35.996 7.8115 3.472985 32.171632 -2.871232
2007-02-16 08:56:20 51°9.237 2°36.105 7.8069 3.468946 32.136277 -2.871232
2007-02-16 08:57:20 51°9.295 2°36.203 7.7949 3.46439 32.092945 -2.871232
2007-02-16 08:58:20 51°9.326 2°36.25 7.7876 3.461801 32.074255 -2.871232
2007-02-16 08:59:20 51°9.339 2°36.254 7.7886 3.459937 32.063897 -2.871232
2007-02-16 09:00:20 51°9.352 2°36.258 7.7785 3.459109 32.056256 -2.871232
2007-02-16 09:01:20 51°9.365 2°36.264 7.7957 3.456934 32.02772 -2.871232
2007-02-16 09:02:20 51°9.379 2°36.27 7.8078 3.453413 31.978326 -2.871232
2007-02-16 09:03:20 51°9.393 2°36.278 7.8015 3.453827 31.977312 -2.871232
2007-02-16 09:04:20 51°9.429 2°36.312 7.8083 3.454345 31.979119 -2.871232
2007-02-16 09:05:20 51°9.487 2°36.256 7.795 3.448753 31.927802 -2.871232
2007-02-16 09:06:20 51°9.447 2°36.182 7.812 3.447511 31.917665 -2.871232
2007-02-16 09:07:20 51°9.384 2°36.193 7.812 3.451549 31.948633 -2.871232
2007-02-16 09:08:20 51°9.337 2°36.193 7.8139 3.453931 31.973984 -2.871232
2007-02-16 09:09:20 51°9.303 2°36.201 7.796 3.45652 31.996193 -2.871232
2007-02-16 09:10:20 51°9.299 2°36.217 7.8079 3.457037 32.009426 -2.871232
2007-02-16 09:11:20 51°9.309 2°36.227 7.8037 3.459316 32.039886 -2.871232
2007-02-16 09:12:20 51°9.325 2°36.239 7.796 3.460144 32.050165 -2.871232
2007-02-16 09:13:20 51°9.342 2°36.254 7.7975 3.460455 32.055121 -2.871232
2007-02-16 09:14:20 51°9.359 2°36.269 7.7904 3.460455 32.056883 -2.871232
2007-02-16 09:15:20 51°9.376 2°36.284 7.7767 3.457038 32.035831 -2.871232
2007-02-16 09:16:20 51°9.38 2°36.265 7.7796 3.454863 32.010821 -2.871232
2007-02-16 09:17:20 51°9.334 2°36.231 7.7866 3.454656 32.009571 -2.871232
2007-02-16 09:18:20 51°9.272 2°36.192 7.7863 3.454967 32.009246 -2.871232
2007-02-16 09:19:20 51°9.258 2°36.182 7.7833 3.457245 32.032677 -2.871232
2007-02-16 09:20:20 51°9.263 2°36.171 7.7853 3.459523 32.053466 -2.871232
2007-02-16 09:21:20 51°9.271 2°36.169 7.7849 3.461283 32.073337 -2.871232
2007-02-16 09:22:20 51°9.282 2°36.175 7.7904 3.461698 32.077598 -2.871232
2007-02-16 09:23:20 51°9.297 2°36.187 7.7884 3.462008 32.075503 -2.871232
2007-02-16 09:24:20 51°9.315 2°36.203 7.7828 3.461283 32.075983 -2.871232
2007-02-16 09:25:20 51°9.336 2°36.221 7.7779 3.461905 32.085021 -2.871232
2007-02-16 09:26:20 51°9.357 2°36.241 7.7684 3.461284 32.083922 -2.871232
2007-02-16 09:27:20 51°9.378 2°36.264 7.7723 3.460145 32.079259 -2.871232
2007-02-16 09:28:20 51°9.4 2°36.288 7.7715 3.460248 32.07856 -2.871232
2007-02-16 09:29:20 51°9.423 2°36.312 7.7798 3.45942 32.071798 -2.871232
2007-02-16 09:30:20 51°9.445 2°36.336 7.7715 3.459834 32.069004 -2.871232
2007-02-16 09:31:20 51°9.468 2°36.36 7.7643 3.459109 32.063309 -2.871232
2007-02-16 09:32:20 51°9.49 2°36.384 7.7642 3.457659 32.057208 -2.871232
2007-02-16 09:33:20 51°9.514 2°36.409 7.7613 3.457038 32.054341 -2.871232
2007-02-16 09:34:20 51°9.538 2°36.435 7.7607 3.456106 32.05004 -2.871232
2007-02-16 09:35:20 51°9.563 2°36.46 7.7555 3.456624 32.05096 -2.871232
2007-02-16 09:36:20 51°9.587 2°36.485 7.7623 3.456727 32.053789 -2.871232
2007-02-16 09:37:20 51°9.611 2°36.511 7.7625 3.457038 32.054341 -2.871232
2007-02-16 09:38:20 51°9.637 2°36.537 7.758 3.456106 32.046512 -2.871232
2007-02-16 09:39:20 51°9.662 2°36.564 7.7572 3.455381 32.039932 -2.871232
2007-02-16 09:40:20 51°9.683 2°36.576 7.7593 3.45476 32.036182 -2.871232
2007-02-16 09:41:20 51°9.662 2°36.564 7.7656 3.455899 32.043499 -2.871232
2007-02-16 09:42:20 51°9.588 2°36.643 7.7695 3.457452 32.053313 -2.871232
2007-02-16 09:43:20 51°9.49 2°36.749 7.783 3.461284 32.083922 -2.871232
2007-02-16 09:44:20 51°9.398 2°36.838 7.7926 3.466461 32.129257 -2.871232
2007-02-16 09:45:20 51°9.313 2°36.94 7.7921 3.471121 32.166601 -2.871232
2007-02-16 09:46:20 51°9.256 2°37.007 7.7897 3.463355 32.096408 -2.871232
2007-02-16 09:47:20 51°9.223 2°37.047 7.8009 3.473192 32.190566 -2.871232
2007-02-16 09:48:20 51°9.193 2°37.062 7.8057 3.48127 32.265722 -2.871232
2007-02-16 09:49:20 51°9.143 2°37.066 7.8067 3.48303 32.28118 -2.871232
2007-02-16 09:50:20 51°9.133 2°37.099 7.8075 3.484066 32.289176 -2.871232
2007-02-16 09:51:20 51°9.148 2°37.122 7.8085 3.484169 32.291129 -2.871232
2007-02-16 09:52:20 51°9.166 2°37.145 7.8073 3.483962 32.290772 -2.871232
2007-02-16 09:53:20 51°9.187 2°37.174 7.8031 3.484376 32.289711 -2.871232
2007-02-16 09:54:20 51°9.209 2°37.206 7.8026 3.483445 32.288992 -2.871232
2007-02-16 09:55:20 51°9.232 2°37.243 7.8024 3.483652 32.288462 -2.871232
2007-02-16 09:56:20 51°9.256 2°37.278 7.8022 3.483444 32.28633 -2.871232
2007-02-16 09:57:20 51°9.279 2°37.312 7.8018 3.482927 32.285437 -2.871232
2007-02-16 09:58:20 51°9.302 2°37.345 7.7996 3.482202 32.281525 -2.871232
2007-02-16 09:59:20 51°9.325 2°37.377 7.8007 3.481684 32.27442 -2.871232
2007-02-16 10:00:20 51°9.347 2°37.409 7.793 3.480959 32.268732 -2.871232
2007-02-16 10:01:20 51°9.369 2°37.44 7.7828 3.4734 32.200664 -2.871232
2007-02-16 10:02:20 51°9.39 2°37.473 7.7794 3.468532 32.158528 -2.871232
2007-02-16 10:03:20 51°9.412 2°37.505 7.778 3.466151 32.134896 -2.871232
2007-02-16 10:04:20 51°9.435 2°37.536 7.779 3.465219 32.124419 -2.871232
2007-02-16 10:05:20 51°9.458 2°37.566 7.7769 3.464908 32.122105 -2.871232
2007-02-16 10:06:20 51°9.482 2°37.597 7.7806 3.464908 32.122989 -2.871232
2007-02-16 10:07:20 51°9.506 2°37.627 7.7859 3.466772 32.135988 -2.871232
2007-02-16 10:08:20 51°9.53 2°37.656 7.7889 3.467704 32.142928 -2.871232
2007-02-16 10:09:20 51°9.552 2°37.685 7.7894 3.468325 32.148438 -2.871232
2007-02-16 10:10:20 51°9.576 2°37.71 7.7953 3.469361 32.155559 -2.871232
2007-02-16 10:11:20 51°9.598 2°37.735 7.7952 3.47195 32.178663 -2.871232
2007-02-16 10:12:20 51°9.622 2°37.759 7.7958 3.472985 32.188435 -2.871232
2007-02-16 10:13:20 51°9.647 2°37.783 7.796 3.472882 32.188254 -2.871232
2007-02-16 10:14:20 51°9.672 2°37.807 7.7944 3.472882 32.189139 -2.871232
2007-02-16 10:15:20 51°9.697 2°37.832 7.7956 3.473089 32.19127 -2.871232
2007-02-16 10:16:20 51°9.722 2°37.857 7.7924 3.474331 32.204945 -2.871232
2007-02-16 10:17:20 51°9.747 2°37.882 7.7884 3.475367 32.217374 -2.871232
2007-02-16 10:18:20 51°9.772 2°37.909 7.7891 3.475264 32.22251 -2.871232
2007-02-16 10:19:20 51°9.798 2°37.935 7.7878 3.475885 32.227134 -2.871232
2007-02-16 10:20:20 51°9.823 2°37.962 7.7878 3.475781 32.227841 -2.871232
2007-02-16 10:21:20 51°9.848 2°37.988 7.7845 3.475471 32.226415 -2.871232
2007-02-16 10:22:20 51°9.873 2°38.015 7.7808 3.474642 32.222316 -2.871232
2007-02-16 10:23:20 51°9.9 2°38.042 7.7799 3.474539 32.220363 -2.871232
2007-02-16 10:24:20 51°9.928 2°38.069 7.7762 3.474849 32.224448 -2.871232
2007-02-16 10:25:20 51°9.957 2°38.097 7.7751 3.474746 32.226928 -2.871232
2007-02-16 10:26:20 51°9.985 2°38.126 7.7747 3.475574 32.23812 -2.871232
2007-02-16 10:27:20 51°10.014 2°38.155 7.7786 3.475781 32.236706 -2.871232
2007-02-16 10:28:20 51°10.042 2°38.185 7.7765 3.475678 32.233866 -2.871232
2007-02-16 10:29:20 51°10.07 2°38.215 7.7752 3.475678 32.236526 -2.871232
2007-02-16 10:30:20 51°10.098 2°38.244 7.7735 3.476506 32.245945 -2.871232
2007-02-16 10:31:20 51°10.126 2°38.272 7.7713 3.47661 32.247899 -2.871232
2007-02-16 10:32:20 51°10.153 2°38.299 7.7701 3.477749 32.262294 -2.871232
2007-02-16 10:33:20 51°10.181 2°38.327 7.7726 3.477439 32.260869 -2.871232
2007-02-16 10:34:20 51°10.208 2°38.353 7.7699 3.475574 32.240781 -2.871232
2007-02-16 10:35:20 51°10.234 2°38.38 7.769 3.474332 32.229755 -2.871232
2007-02-16 10:36:20 51°10.26 2°38.406 7.7657 3.471329 32.200596 -2.871232
2007-02-16 10:37:20 51°10.286 2°38.431 7.7647 3.471225 32.202187 -2.871232
2007-02-16 10:38:20 51°10.312 2°38.456 7.7601 3.469465 32.185826 -2.871232
2007-02-16 10:39:20 51°10.337 2°38.482 7.7608 3.469568 32.187779 -2.871232
2007-02-16 10:40:20 51°10.365 2°38.508 7.7588 3.468636 32.180836 -2.871232
2007-02-16 10:41:20 51°10.391 2°38.534 7.759 3.469154 32.187941 -2.871232
2007-02-16 10:42:20 51°10.418 2°38.559 7.7548 3.468119 32.176388 -2.871232
2007-02-16 10:43:20 51°10.444 2°38.584 7.7548 3.467808 32.175845 -2.871232
2007-02-16 10:44:20 51°10.47 2°38.609 7.756 3.469258 32.189008 -2.871232
2007-02-16 10:45:20 51°10.496 2°38.634 7.7554 3.468947 32.185808 -2.871232
2007-02-16 10:46:20 51°10.524 2°38.66 7.755 3.467808 32.17673 -2.871232
2007-02-16 10:47:20 51°10.551 2°38.685 7.7523 3.468015 32.17975 -2.871232
2007-02-16 10:48:20 51°10.579 2°38.712 7.7524 3.468843 32.189171 -2.871232
2007-02-16 10:49:19 51°10.607 2°38.74 7.7488 3.467911 32.182226 -2.871232
2007-02-16 10:50:19 51°10.634 2°38.768 7.7487 3.468326 32.18738 -2.871232
2007-02-16 10:51:19 51°10.661 2°38.798 7.7467 3.468533 32.188628 -2.871232
2007-02-16 10:52:19 51°10.668 2°38.802 7.7536 3.468119 32.183474 -2.871232
2007-02-16 10:53:19 51°10.626 2°38.823 7.7571 3.469465 32.196458 -2.871232
2007-02-16 10:54:19 51°10.485 2°38.861 7.7668 3.474125 32.236491 -2.871232
2007-02-16 10:55:19 51°10.289 2°38.892 7.7796 3.483134 32.316882 -2.871232
2007-02-16 10:56:19 51°10.078 2°38.92 7.7981 3.480442 32.276711 -2.871232
2007-02-16 10:57:19 51°9.866 2°38.949 7.8065 3.484687 32.30356 -2.871232
2007-02-16 10:58:19 51°9.684 2°38.978 7.8091 3.48448 32.295214 -2.871232
2007-02-16 10:59:19 51°9.568 2°39.008 7.8108 3.48448 32.295214 -2.871232
2007-02-16 11:00:19 51°9.477 2°39.038 7.8066 3.482823 32.278161 -2.871232
2007-02-16 11:01:19 51°9.418 2°39.065 7.7764 3.479509 32.26179 -2.871232
2007-02-16 11:02:19 51°9.376 2°39.081 7.7637 3.474642 32.234728 -2.871232
2007-02-16 11:03:20 51°9.342 2°39.11 7.751 3.475368 32.252845 -2.871232
2007-02-16 11:04:20 51°9.316 2°39.135 7.7436 3.48272 32.341978 -2.871232
2007-02-16 11:05:20 51°9.304 2°39.151 7.7315 3.483963 32.358358 -2.871232
2007-02-16 11:06:20 51°9.305 2°39.164 7.7262 3.483653 32.364067 -2.871232
2007-02-16 11:07:20 51°9.313 2°39.176 7.7537 3.483342 32.364428 -2.871232
2007-02-16 11:08:20 51°9.327 2°39.189 7.7341 3.485309 32.36333 -2.871232
2007-02-16 11:09:20 51°9.342 2°39.205 7.7312 3.48386 32.365312 -2.871232
2007-02-16 11:10:20 51°9.361 2°39.223 7.7319 3.483653 32.364067 -2.871232
2007-02-16 11:11:20 51°9.38 2°39.243 7.7374 3.484584 32.362984 -2.871232
2007-02-16 11:12:20 51°9.399 2°39.266 7.7383 3.484481 32.365481 -2.871232
2007-02-16 11:13:20 51°9.419 2°39.29 7.7383 3.483963 32.361923 -2.871232
2007-02-16 11:14:20 51°9.439 2°39.316 7.7403 3.48417 32.361385 -2.871232
2007-02-16 11:15:20 51°9.46 2°39.343 7.739 3.477232 32.285384 -2.871232
2007-02-16 11:16:20 51°9.48 2°39.37 7.7326 3.474954 32.268117 -2.871232
2007-02-16 11:17:20 51°9.496 2°39.369 7.7419 3.474436 32.268111 -2.871232
2007-02-16 11:18:20 51°9.506 2°39.334 7.7568 3.474021 32.246074 -2.871232
2007-02-16 11:19:20 51°9.515 2°39.294 7.7649 3.474228 32.24377 -2.871232
2007-02-16 11:20:20 51°9.521 2°39.198 7.7585 3.475471 32.252137 -2.871232
2007-02-16 11:21:20 51°9.513 2°39.087 7.7693 3.477646 32.270993 -2.871232
2007-02-16 11:22:20 51°9.494 2°38.974 7.7716 3.479199 32.279005 -2.871232
2007-02-16 11:23:20 51°9.483 2°38.894 7.7746 3.47982 32.288071 -2.871232
2007-02-16 11:24:20 51°9.48 2°38.821 7.7763 3.480235 32.287009 -2.871232
2007-02-16 11:25:20 51°9.484 2°38.741 7.78 3.480235 32.286121 -2.871232
2007-02-16 11:26:20 51°9.485 2°38.661 7.787 3.480856 32.288968 -2.871232
2007-02-16 11:27:20 51°9.483 2°38.584 7.7816 3.482409 32.300527 -2.871232
2007-02-16 11:28:20 51°9.477 2°38.508 7.7825 3.483963 32.318305 -2.871232
2007-02-16 11:29:20 51°9.469 2°38.433 7.789 3.486034 32.336973 -2.871232
2007-02-16 11:30:20 51°9.464 2°38.359 7.797 3.489555 32.368796 -2.871232
2007-02-16 11:31:20 51°9.458 2°38.287 7.8082 3.493283 32.396514 -2.871232
2007-02-16 11:32:20 51°9.451 2°38.215 7.8085 3.495043 32.408411 -2.871232
2007-02-16 11:33:20 51°9.443 2°38.142 7.8079 3.495458 32.412678 -2.871232
2007-02-16 11:34:20 51°9.436 2°38.069 7.8082 3.495561 32.415526 -2.871232
2007-02-16 11:35:20 51°9.432 2°37.996 7.8113 3.495975 32.417119 -2.871232
2007-02-16 11:36:20 51°9.425 2°37.925 7.8097 3.496493 32.421561 -2.871232
2007-02-16 11:37:20 51°9.417 2°37.853 7.8068 3.496804 32.426543 -2.871232
2007-02-16 11:38:20 51°9.412 2°37.781 7.8083 3.497115 32.430634 -2.871232
2007-02-16 11:39:20 51°9.406 2°37.713 7.8145 3.49815 32.435061 -2.871232
2007-02-16 11:40:20 51°9.399 2°37.647 7.8134 3.498564 32.438435 -2.871232
2007-02-16 11:41:20 51°9.389 2°37.581 7.8069 3.498668 32.443068 -2.871232
2007-02-16 11:42:20 51°9.38 2°37.513 7.8083 3.498564 32.44646 -2.871232
2007-02-16 11:43:20 51°9.369 2°37.446 7.8055 3.498979 32.448943 -2.871232
2007-02-16 11:44:20 51°9.36 2°37.377 7.8057 3.498979 32.451619 -2.871232
2007-02-16 11:45:20 51°9.357 2°37.305 7.8048 3.499082 32.453578 -2.871232
2007-02-16 11:46:20 51°9.362 2°37.233 7.8055 3.499289 32.455712 -2.871232
2007-02-16 11:47:20 51°9.377 2°37.17 7.808 3.499704 32.459979 -2.871232
2007-02-16 11:48:20 51°9.414 2°37.12 7.8131 3.500636 32.466904 -2.871232
2007-02-16 11:49:20 51°9.477 2°37.108 7.8203 3.502707 32.480207 -2.871232
2007-02-16 11:50:20 51°9.544 2°37.143 7.8277 3.506124 32.503798 -2.871232
2007-02-16 11:51:20 51°9.595 2°37.199 7.8296 3.507678 32.514437 -2.871232
2007-02-16 11:52:20 51°9.633 2°37.258 7.828 3.508196 32.518875 -2.871232
2007-02-16 11:53:20 51°9.664 2°37.313 7.8258 3.508092 32.519595 -2.871232
2007-02-16 11:54:20 51°9.687 2°37.473 7.8283 3.507885 32.516569 -2.871232
2007-02-16 11:55:20 51°9.691 2°37.795 7.8304 3.508092 32.51513 -2.871232
2007-02-16 11:56:20 51°9.672 2°38.147 7.8168 3.505399 32.490086 -2.871232
2007-02-16 11:57:20 51°9.646 2°38.505 7.8141 3.501257 32.457247 -2.871232
2007-02-16 11:58:20 51°9.62 2°38.857 7.8057 3.498047 32.427756 -2.871232
2007-02-16 11:59:20 51°9.594 2°39.207 7.7896 3.494111 32.397922 -2.871232
2007-02-16 12:00:20 51°9.571 2°39.558 7.7733 3.491005 32.384623 -2.871232
2007-02-16 12:01:20 51°9.551 2°39.921 7.7601 3.489244 32.378061 -2.871232
2007-02-16 12:02:20 51°9.528 2°40.294 7.7393 3.486863 32.369546 -2.871232
2007-02-16 12:03:20 51°9.515 2°40.669 7.6981 3.484481 32.368156 -2.871232
2007-02-16 12:04:20 51°9.502 2°41.044 7.7219 3.482514 32.362122 -2.871232
2007-02-16 12:05:20 51°9.49 2°41.417 7.7194 3.477853 32.304244 -2.871232
2007-02-16 12:06:20 51°9.477 2°41.79 7.7105 3.473608 32.272014 -2.871232
2007-02-16 12:07:20 51°9.469 2°42.162 7.661 3.476093 32.312792 -2.871232
2007-02-16 12:08:20 51°9.457 2°42.388 7.6341 3.454658 32.141262 -2.871232
2007-02-16 12:09:20 51°9.456 2°42.433 7.6401 3.437675 31.972994 -2.871232
2007-02-16 12:10:23 51°9.461 2°42.446 7.6353 3.434673 31.949058 -2.871232
2007-02-16 12:11:21 51°9.466 2°42.452 7.6331 3.435605 31.96221 -2.871232
2007-02-16 12:12:20 51°9.475 2°42.456 7.6453 3.436951 31.97611 -2.871232
2007-02-16 12:13:23 51°9.484 2°42.427 7.6319 3.437883 31.980432 -2.871232
2007-02-16 12:14:20 51°9.531 2°42.24 7.6356 3.438607 31.990566 -2.871232
2007-02-16 12:15:20 51°9.608 2°41.932 7.6861 3.462631 32.216513 -2.871232
2007-02-16 12:16:20 51°9.676 2°41.606 7.709 3.444509 31.9976 -2.871232
2007-02-16 12:17:20 51°9.712 2°41.357 7.7077 3.444923 31.982467 -2.871232
2007-02-16 12:18:20 51°9.719 2°41.235 7.707 3.449997 32.04094 -2.871232
2007-02-16 12:19:20 51°9.717 2°41.16 7.7167 3.468844 32.22199 -2.871232
2007-02-16 12:20:20 51°9.737 2°41.052 7.6876 3.479303 32.337907 -2.871232
2007-02-16 12:21:20 51°9.775 2°40.93 7.703 3.479925 32.363947 -2.871232
2007-02-16 12:22:20 51°9.807 2°40.805 7.7258 3.481789 32.361776 -2.871232
2007-02-16 12:23:20 51°9.834 2°40.719 7.7405 3.483445 32.362822 -2.871232
2007-02-16 12:24:20 51°9.844 2°40.656 7.7571 3.485102 32.362977 -2.871232
2007-02-16 12:25:20 51°9.845 2°40.602 7.7548 3.486138 32.364745 -2.871232
2007-02-16 12:26:20 51°9.837 2°40.551 7.7605 3.485931 32.365282 -2.871232
2007-02-16 12:27:20 51°9.833 2°40.474 7.7524 3.486138 32.368309 -2.871232
2007-02-16 12:28:20 51°9.831 2°40.383 7.7562 3.486241 32.369377 -2.871232
2007-02-16 12:29:20 51°9.817 2°40.299 7.7657 3.487484 32.370606 -2.871232
2007-02-16 12:30:20 51°9.795 2°40.215 7.7621 3.487795 32.373808 -2.871232
2007-02-16 12:31:20 51°9.774 2°40.13 7.7658 3.488002 32.376834 -2.871232
2007-02-16 12:32:20 51°9.753 2°40.043 7.7668 3.488416 32.379322 -2.871232
2007-02-16 12:33:20 51°9.734 2°39.956 7.7669 3.488623 32.380566 -2.871232
2007-02-16 12:34:20 51°9.715 2°39.87 7.7685 3.488934 32.382878 -2.871232
2007-02-16 12:35:20 51°9.695 2°39.783 7.7648 3.488934 32.383769 -2.871232
2007-02-16 12:36:20 51°9.676 2°39.696 7.7597 3.488934 32.385551 -2.871232
2007-02-16 12:37:20 51°9.656 2°39.608 7.7552 3.48883 32.38894 -2.871232
2007-02-16 12:38:20 51°9.636 2°39.519 7.7506 3.488727 32.395898 -2.871232
2007-02-16 12:39:20 51°9.615 2°39.43 7.7546 3.488727 32.395006 -2.871232
2007-02-16 12:40:20 51°9.594 2°39.34 7.7491 3.488934 32.395358 -2.871232
2007-02-16 12:41:20 51°9.573 2°39.249 7.7533 3.489037 32.401778 -2.871232
2007-02-16 12:42:20 51°9.555 2°39.159 7.7563 3.489245 32.400346 -2.871232
2007-02-16 12:43:20 51°9.536 2°39.069 7.7623 3.489555 32.399982 -2.871232
2007-02-16 12:44:20 51°9.519 2°38.976 7.7602 3.490176 32.400146 -2.871232
2007-02-16 12:45:20 51°9.517 2°38.876 7.7637 3.490487 32.404241 -2.871232
2007-02-16 12:46:20 51°9.537 2°38.775 7.7697 3.491108 32.406187 -2.871232
2007-02-16 12:47:20 51°9.574 2°38.686 7.7749 3.491937 32.410269 -2.871232
2007-02-16 12:48:20 51°9.627 2°38.633 7.7766 3.492869 32.415417 -2.871232
2007-02-16 12:49:20 51°9.696 2°38.643 7.7834 3.494008 32.422699 -2.871232
2007-02-16 12:50:20 51°9.752 2°38.702 7.7876 3.495251 32.429263 -2.871232
2007-02-16 12:51:20 51°9.774 2°38.799 7.7916 3.496493 32.435825 -2.871232
2007-02-16 12:52:20 51°9.751 2°38.879 7.7891 3.496597 32.433325 -2.871232
2007-02-16 12:53:20 51°9.749 2°38.903 7.7904 3.495665 32.42818 -2.871232
2007-02-16 12:54:20 51°9.762 2°38.914 7.7874 3.495354 32.427655 -2.871232
2007-02-16 12:55:20 51°9.769 2°38.896 7.7897 3.495251 32.428371 -2.871232
2007-02-16 12:56:20 51°9.766 2°38.861 7.7872 3.495147 32.427304 -2.871232
2007-02-16 12:57:20 51°9.767 2°38.841 7.7877 3.495044 32.427128 -2.871232
2007-02-16 12:58:20 51°9.771 2°38.83 7.7865 3.495251 32.430155 -2.871232
2007-02-16 12:59:20 51°9.779 2°38.825 7.7868 3.495251 32.431047 -2.871232
2007-02-16 13:00:20 51°9.777 2°38.809 7.7878 3.495872 32.434774 -2.871232
2007-02-16 13:01:20 51°9.733 2°38.838 7.7852 3.495561 32.433356 -2.871232
2007-02-16 13:02:20 51°9.772 2°39.003 7.7824 3.494733 32.426602 -2.871232
2007-02-16 13:03:20 51°9.868 2°39.308 7.7899 3.494629 32.419294 -2.871232
2007-02-16 13:04:20 51°9.957 2°39.616 7.7925 3.494733 32.415012 -2.871232
2007-02-16 13:05:20 51°10.053 2°39.919 7.7965 3.494422 32.409139 -2.871232
2007-02-16 13:06:20 51°10.149 2°40.222 7.8013 3.494526 32.406642 -2.871232
2007-02-16 13:07:20 51°10.245 2°40.526 7.8013 3.49494 32.405564 -2.871232
2007-02-16 13:08:20 51°10.342 2°40.829 7.8009 3.492558 32.381036 -2.871232
2007-02-16 13:09:20 51°10.44 2°41.132 7.8035 3.490694 32.362732 -2.871232
2007-02-16 13:10:20 51°10.537 2°41.436 7.8074 3.490901 32.363086 -2.871232
2007-02-16 13:11:20 51°10.632 2°41.742 7.8136 3.493386 32.383337 -2.871232
2007-02-16 13:12:20 51°10.728 2°42.048 7.8157 3.495768 32.403409 -2.871232
2007-02-16 13:13:20 51°10.822 2°42.351 7.8097 3.49204 32.367698 -2.871232
2007-02-16 13:14:20 51°10.917 2°42.655 7.8069 3.488208 32.331811 -2.871232
2007-02-16 13:15:20 51°11.004 2°42.965 7.8082 3.48593 32.308361 -2.871232
2007-02-16 13:16:20 51°11.084 2°43.277 7.8114 3.475367 32.201439 -2.871232
2007-02-16 13:17:20 51°11.165 2°43.589 7.8112 3.474331 32.186363 -2.871232
2007-02-16 13:18:20 51°11.247 2°43.903 7.8143 3.475367 32.194361 -2.871232
2007-02-16 13:19:20 51°11.331 2°44.219 7.8183 3.479613 32.234495 -2.871232
2007-02-16 13:20:20 51°11.413 2°44.534 7.8094 3.485205 32.292026 -2.871232
2007-02-16 13:21:20 51°11.496 2°44.849 7.7993 3.487173 32.322928 -2.871232
2007-02-16 13:22:20 51°11.579 2°45.162 7.7906 3.488519 32.347454 -2.871232
2007-02-16 13:23:20 51°11.663 2°45.475 7.7897 3.488416 32.350834 -2.871232
2007-02-16 13:24:20 51°11.748 2°45.789 7.7916 3.48127 32.273704 -2.871232
2007-02-16 13:25:20 51°11.834 2°46.103 7.7931 3.475678 32.216144 -2.871232
2007-02-16 13:26:20 51°11.918 2°46.417 7.7936 3.472157 32.180794 -2.871232
2007-02-16 13:27:20 51°12.003 2°46.728 7.7982 3.470603 32.162157 -2.871232
2007-02-16 13:28:20 51°12.087 2°47.039 7.8022 3.469361 32.145838 -2.871232
2007-02-16 13:29:20 51°12.173 2°47.35 7.7972 3.465529 32.103778 -2.871232
2007-02-16 13:30:20 51°12.263 2°47.653 7.7917 3.45828 32.036282 -2.871232
2007-02-16 13:31:20 51°12.352 2°47.944 7.7892 3.454242 31.998273 -2.871232
2007-02-16 13:32:20 51°12.439 2°48.235 7.7932 3.452792 31.984245 -2.871232
2007-02-16 13:33:20 51°12.527 2°48.526 7.7953 3.453206 31.987625 -2.871232
2007-02-16 13:34:20 51°12.618 2°48.814 7.8014 3.454242 31.993875 -2.871232
2007-02-16 13:35:20 51°12.717 2°49.096 7.8041 3.455795 32.005447 -2.871232
2007-02-16 13:36:20 51°12.816 2°49.378 7.8085 3.457866 32.02322 -2.871232
2007-02-16 13:37:20 51°12.918 2°49.657 7.8244 3.458798 32.022242 -2.871232
2007-02-16 13:38:20 51°13.024 2°49.934 7.8304 3.458694 32.012384 -2.871232
2007-02-16 13:39:20 51°13.129 2°50.211 7.8313 3.460247 32.023947 -2.871232
2007-02-16 13:40:20 51°13.233 2°50.487 7.8351 3.462215 32.042403 -2.871232
2007-02-16 13:41:20 51°13.337 2°50.756 7.839 3.463975 32.05609 -2.871232
2007-02-16 13:42:20 51°13.444 2°51.02 7.8369 3.465114 32.066912 -2.871232
2007-02-16 13:43:20 51°13.554 2°51.282 7.8956 3.4647 32.071461 -2.871232
2007-02-16 13:44:20 51°13.668 2°51.541 7.973 3.474226 32.061103 -2.871232
2007-02-16 13:45:20 51°13.781 2°51.8 7.9351 2.632368 23.5529 -2.871232
2007-02-16 13:46:20 51°13.894 2°52.058 7.9457 2.566528 22.892886 -2.871232
2007-02-16 13:47:20 51°14.005 2°52.314 7.9358 2.410288 21.354635 -2.871232
2007-02-16 13:48:20 51°14.115 2°52.571 7.9394 2.278165 20.074833 -2.871232
2007-02-16 13:49:20 51°14.22 2°52.832 7.9428 2.506072 22.28042 -2.871232
2007-02-16 13:50:20 51°14.325 2°53.092 7.9339 2.579654 22.996451 -2.871232
2007-02-16 13:51:20 51°14.406 2°53.367 7.9493 2.938222 26.537662 -2.871232
2007-02-16 13:52:20 51°14.44 2°53.664 7.9518 2.480651 22.024207 -2.871232
2007-02-16 13:53:20 51°14.446 2°53.962 7.965 2.79685 25.123932 -2.871232
2007-02-16 13:54:20 51°14.441 2°54.255 7.964 2.884543 25.98598 -2.871232
2007-02-16 13:55:20 51°14.433 2°54.546 7.9756 2.591023 23.090837 -2.871232
2007-02-16 13:56:20 51°14.409 2°54.835 7.9808 2.463498 21.840604 -2.871232
2007-02-16 13:57:20 51°14.347 2°55.093 7.9355 2.419793 21.412613 -2.871232
2007-02-16 13:58:20 51°14.243 2°55.302 7.8698 2.272174 20.014346 -2.871232
2007-02-16 13:59:20 51°14.109 2°55.435 7.87 2.535214 22.608571 -2.871232
2007-02-16 14:00:20 51°13.971 2°55.533 7.8486 2.666169 23.902451 -2.871232
2007-02-16 14:01:20 51°13.869 2°55.611 8.2489 0.480621 2.832528 -2.871232
2007-02-16 14:02:20 51°13.794 2°55.676 8.4863 0.105741 0.572344 -2.871232
2007-02-16 14:03:21 51°13.71 2°55.782 8.6917 0.070029 0.377331 -2.871232
2007-02-16 14:04:24 51°13.65 2°55.91 8.9048 0.064164 0.352116 -2.871232
2007-02-16 14:05:24 51°13.615 2°56.009 9.131 0.062003 0.346932 -2.871232
2007-02-16 14:06:23 51°13.601 2°56.081 9.3551 0.060871 0.344597 -2.871232
2007-02-16 14:07:24 51°13.598 2°56.092 9.584 0.060356 0.343223 -2.871232